sensor_id;sensor_type;location;lat;lon;timestamp;temperature;humidity
31783;DHT22;18351;47.560;9.708;2023-08-24T00:01:03;22.50;99.90
31783;DHT22;18351;47.560;9.708;2023-08-24T00:03:28;22.40;99.90
31783;DHT22;18351;47.560;9.708;2023-08-24T00:05:54;22.30;99.90
31783;DHT22;18351;47.560;9.708;2023-08-24T00:08:20;22.20;99.90
31783;DHT22;18351;47.560;9.708;2023-08-24T00:10:46;22.10;99.90
31783;DHT22;18351;47.560;9.708;2023-08-24T00:13:15;22.10;99.90
31783;DHT22;18351;47.560;9.708;2023-08-24T00:15:41;21.90;99.90
31783;DHT22;18351;47.560;9.708;2023-08-24T00:18:06;21.90;99.90
31783;DHT22;18351;47.560;9.708;2023-08-24T00:20:33;21.80;99.90
31783;DHT22;18351;47.560;9.708;2023-08-24T00:22:59;21.80;99.90
31783;DHT22;18351;47.560;9.708;2023-08-24T00:25:25;21.70;99.90
31783;DHT22;18351;47.560;9.708;2023-08-24T00:27:53;21.70;99.90
31783;DHT22;18351;47.560;9.708;2023-08-24T00:30:20;21.70;99.90
31783;DHT22;18351;47.560;9.708;2023-08-24T00:32:45;21.70;99.90
31783;DHT22;18351;47.560;9.708;2023-08-24T00:35:11;21.70;99.90
31783;DHT22;18351;47.560;9.708;2023-08-24T00:37:37;21.70;99.90
31783;DHT22;18351;47.560;9.708;2023-08-24T00:40:05;21.70;99.90
31783;DHT22;18351;47.560;9.708;2023-08-24T00:42:40;21.60;99.90
31783;DHT22;18351;47.560;9.708;2023-08-24T00:45:07;21.60;99.90
31783;DHT22;18351;47.560;9.708;2023-08-24T00:47:33;21.60;99.90
31783;DHT22;18351;47.560;9.708;2023-08-24T00:50:00;21.60;99.90
31783;DHT22;18351;47.560;9.708;2023-08-24T00:52:28;21.60;99.90
31783;DHT22;18351;47.560;9.708;2023-08-24T00:54:54;21.60;99.90
31783;DHT22;18351;47.560;9.708;2023-08-24T00:57:21;21.60;99.90
31783;DHT22;18351;47.560;9.708;2023-08-24T00:59:47;21.60;99.90
31783;DHT22;18351;47.560;9.708;2023-08-24T01:02:13;21.50;99.90
31783;DHT22;18351;47.560;9.708;2023-08-24T01:04:41;21.60;99.90
31783;DHT22;18351;47.560;9.708;2023-08-24T01:07:07;21.60;99.90
31783;DHT22;18351;47.560;9.708;2023-08-24T01:09:34;21.50;99.90
31783;DHT22;18351;47.560;9.708;2023-08-24T01:15:07;21.50;99.90
31783;DHT22;18351;47.560;9.708;2023-08-24T01:17:35;21.50;99.90
31783;DHT22;18351;47.560;9.708;2023-08-24T01:20:04;21.40;99.90
31783;DHT22;18351;47.560;9.708;2023-08-24T01:22:37;21.40;99.90
31783;DHT22;18351;47.560;9.708;2023-08-24T01:25:23;21.40;99.90
31783;DHT22;18351;47.560;9.708;2023-08-24T01:27:50;21.30;99.90
31783;DHT22;18351;47.560;9.708;2023-08-24T01:30:17;21.30;99.90
31783;DHT22;18351;47.560;9.708;2023-08-24T01:32:43;21.30;99.90
31783;DHT22;18351;47.560;9.708;2023-08-24T01:35:09;21.30;99.90
31783;DHT22;18351;47.560;9.708;2023-08-24T01:37:35;21.30;99.90
31783;DHT22;18351;47.560;9.708;2023-08-24T01:45:18;21.30;99.90
31783;DHT22;18351;47.560;9.708;2023-08-24T01:47:47;21.30;99.90
31783;DHT22;18351;47.560;9.708;2023-08-24T01:50:13;21.40;99.90
31783;DHT22;18351;47.560;9.708;2023-08-24T01:52:40;21.40;99.90
31783;DHT22;18351;47.560;9.708;2023-08-24T01:55:07;21.40;99.90
31783;DHT22;18351;47.560;9.708;2023-08-24T01:57:33;21.30;99.90
31783;DHT22;18351;47.560;9.708;2023-08-24T01:59:58;21.30;99.90
31783;DHT22;18351;47.560;9.708;2023-08-24T02:02:24;21.30;99.90
31783;DHT22;18351;47.560;9.708;2023-08-24T02:04:50;21.20;99.90
31783;DHT22;18351;47.560;9.708;2023-08-24T02:07:16;21.10;99.90
31783;DHT22;18351;47.560;9.708;2023-08-24T02:09:41;21.20;99.90
31783;DHT22;18351;47.560;9.708;2023-08-24T02:12:07;21.20;99.90
31783;DHT22;18351;47.560;9.708;2023-08-24T02:14:33;21.10;99.90
31783;DHT22;18351;47.560;9.708;2023-08-24T02:16:58;21.10;99.90
31783;DHT22;18351;47.560;9.708;2023-08-24T02:19:24;21.00;99.90
31783;DHT22;18351;47.560;9.708;2023-08-24T02:21:49;20.90;99.90
31783;DHT22;18351;47.560;9.708;2023-08-24T02:24:15;20.90;99.90
31783;DHT22;18351;47.560;9.708;2023-08-24T02:26:40;20.90;99.90
31783;DHT22;18351;47.560;9.708;2023-08-24T02:29:06;20.90;99.90
31783;DHT22;18351;47.560;9.708;2023-08-24T02:31:31;20.80;99.90
31783;DHT22;18351;47.560;9.708;2023-08-24T02:33:57;20.80;99.90
31783;DHT22;18351;47.560;9.708;2023-08-24T02:36:23;20.80;99.90
31783;DHT22;18351;47.560;9.708;2023-08-24T02:38:48;20.70;99.90
31783;DHT22;18351;47.560;9.708;2023-08-24T02:41:14;20.60;99.90
31783;DHT22;18351;47.560;9.708;2023-08-24T02:43:40;20.60;99.90
31783;DHT22;18351;47.560;9.708;2023-08-24T02:46:07;20.60;99.90
31783;DHT22;18351;47.560;9.708;2023-08-24T02:48:33;20.50;99.90
31783;DHT22;18351;47.560;9.708;2023-08-24T02:51:00;20.60;99.90
31783;DHT22;18351;47.560;9.708;2023-08-24T02:53:26;20.50;99.90
31783;DHT22;18351;47.560;9.708;2023-08-24T02:55:53;20.50;99.90
31783;DHT22;18351;47.560;9.708;2023-08-24T02:58:19;20.50;99.90
31783;DHT22;18351;47.560;9.708;2023-08-24T03:00:45;20.50;99.90
31783;DHT22;18351;47.560;9.708;2023-08-24T03:03:14;20.50;99.90
31783;DHT22;18351;47.560;9.708;2023-08-24T03:05:40;20.50;99.90
31783;DHT22;18351;47.560;9.708;2023-08-24T03:08:05;20.50;99.90
31783;DHT22;18351;47.560;9.708;2023-08-24T03:10:34;20.50;99.90
31783;DHT22;18351;47.560;9.708;2023-08-24T03:13:00;20.40;99.90
31783;DHT22;18351;47.560;9.708;2023-08-24T03:15:26;20.40;99.90
31783;DHT22;18351;47.560;9.708;2023-08-24T03:17:51;20.40;99.90
31783;DHT22;18351;47.560;9.708;2023-08-24T03:20:18;20.40;99.90
31783;DHT22;18351;47.560;9.708;2023-08-24T03:22:44;20.40;99.90
31783;DHT22;18351;47.560;9.708;2023-08-24T03:25:09;20.40;99.90
31783;DHT22;18351;47.560;9.708;2023-08-24T03:27:35;20.40;99.90
31783;DHT22;18351;47.560;9.708;2023-08-24T03:30:01;20.40;99.90
31783;DHT22;18351;47.560;9.708;2023-08-24T03:32:27;20.40;99.90
31783;DHT22;18351;47.560;9.708;2023-08-24T03:34:58;20.40;99.90
31783;DHT22;18351;47.560;9.708;2023-08-24T03:37:24;20.30;99.90
31783;DHT22;18351;47.560;9.708;2023-08-24T03:39:49;20.30;99.90
31783;DHT22;18351;47.560;9.708;2023-08-24T03:42:15;20.20;99.90
31783;DHT22;18351;47.560;9.708;2023-08-24T03:44:40;20.20;99.90
31783;DHT22;18351;47.560;9.708;2023-08-24T03:47:06;20.20;99.90
31783;DHT22;18351;47.560;9.708;2023-08-24T03:49:32;20.20;99.90
31783;DHT22;18351;47.560;9.708;2023-08-24T03:51:57;20.20;99.90
31783;DHT22;18351;47.560;9.708;2023-08-24T03:54:23;20.30;99.90
31783;DHT22;18351;47.560;9.708;2023-08-24T03:56:48;20.30;99.90
31783;DHT22;18351;47.560;9.708;2023-08-24T03:59:14;20.30;99.90
31783;DHT22;18351;47.560;9.708;2023-08-24T04:01:39;20.30;99.90
31783;DHT22;18351;47.560;9.708;2023-08-24T04:04:05;20.30;99.90
31783;DHT22;18351;47.560;9.708;2023-08-24T04:06:31;20.30;99.90
31783;DHT22;18351;47.560;9.708;2023-08-24T04:08:56;20.30;99.90
31783;DHT22;18351;47.560;9.708;2023-08-24T04:11:22;20.30;99.90
31783;DHT22;18351;47.560;9.708;2023-08-24T04:13:47;20.30;99.90
31783;DHT22;18351;47.560;9.708;2023-08-24T04:16:13;20.30;99.90
31783;DHT22;18351;47.560;9.708;2023-08-24T04:18:38;20.20;99.90
31783;DHT22;18351;47.560;9.708;2023-08-24T04:21:06;20.20;99.90
31783;DHT22;18351;47.560;9.708;2023-08-24T04:23:31;20.20;99.90
31783;DHT22;18351;47.560;9.708;2023-08-24T04:25:57;20.20;99.90
31783;DHT22;18351;47.560;9.708;2023-08-24T04:28:23;20.20;99.90
31783;DHT22;18351;47.560;9.708;2023-08-24T04:30:50;20.00;99.90
31783;DHT22;18351;47.560;9.708;2023-08-24T04:33:15;20.10;99.90
31783;DHT22;18351;47.560;9.708;2023-08-24T04:35:41;20.10;99.90
31783;DHT22;18351;47.560;9.708;2023-08-24T04:38:06;20.20;99.90
31783;DHT22;18351;47.560;9.708;2023-08-24T04:40:51;20.20;99.90
31783;DHT22;18351;47.560;9.708;2023-08-24T04:43:18;20.20;99.90
31783;DHT22;18351;47.560;9.708;2023-08-24T04:45:46;20.20;99.90
31783;DHT22;18351;47.560;9.708;2023-08-24T04:48:12;20.20;99.90
31783;DHT22;18351;47.560;9.708;2023-08-24T04:50:37;20.20;99.90
31783;DHT22;18351;47.560;9.708;2023-08-24T04:53:03;20.20;99.90
31783;DHT22;18351;47.560;9.708;2023-08-24T04:55:29;20.20;99.90
31783;DHT22;18351;47.560;9.708;2023-08-24T04:57:54;20.20;99.90
31783;DHT22;18351;47.560;9.708;2023-08-24T05:00:20;20.20;99.90
31783;DHT22;18351;47.560;9.708;2023-08-24T05:02:45;20.20;99.90
31783;DHT22;18351;47.560;9.708;2023-08-24T05:05:11;20.20;99.90
31783;DHT22;18351;47.560;9.708;2023-08-24T05:07:39;20.20;99.90
31783;DHT22;18351;47.560;9.708;2023-08-24T05:10:05;20.20;99.90
31783;DHT22;18351;47.560;9.708;2023-08-24T05:12:32;20.20;99.90
31783;DHT22;18351;47.560;9.708;2023-08-24T05:14:59;20.30;99.90
31783;DHT22;18351;47.560;9.708;2023-08-24T05:17:24;20.30;99.90
31783;DHT22;18351;47.560;9.708;2023-08-24T05:19:53;20.40;99.90
31783;DHT22;18351;47.560;9.708;2023-08-24T05:22:18;20.50;99.90
31783;DHT22;18351;47.560;9.708;2023-08-24T05:24:44;20.60;99.90
31783;DHT22;18351;47.560;9.708;2023-08-24T05:27:09;20.60;99.90
31783;DHT22;18351;47.560;9.708;2023-08-24T05:29:35;20.70;99.90
31783;DHT22;18351;47.560;9.708;2023-08-24T05:32:00;20.80;99.90
31783;DHT22;18351;47.560;9.708;2023-08-24T05:34:26;20.80;99.90
31783;DHT22;18351;47.560;9.708;2023-08-24T05:36:51;20.90;99.90
31783;DHT22;18351;47.560;9.708;2023-08-24T05:39:17;20.90;99.90
31783;DHT22;18351;47.560;9.708;2023-08-24T05:41:42;21.10;99.90
31783;DHT22;18351;47.560;9.708;2023-08-24T05:44:08;21.30;99.90
31783;DHT22;18351;47.560;9.708;2023-08-24T05:46:34;21.50;99.90
31783;DHT22;18351;47.560;9.708;2023-08-24T05:48:59;21.70;99.90
31783;DHT22;18351;47.560;9.708;2023-08-24T05:51:25;21.80;99.90
31783;DHT22;18351;47.560;9.708;2023-08-24T05:53:51;22.00;99.90
31783;DHT22;18351;47.560;9.708;2023-08-24T05:56:21;22.10;99.90
31783;DHT22;18351;47.560;9.708;2023-08-24T05:58:47;22.20;99.90
31783;DHT22;18351;47.560;9.708;2023-08-24T06:01:13;22.30;99.90
31783;DHT22;18351;47.560;9.708;2023-08-24T06:03:38;22.30;99.90
31783;DHT22;18351;47.560;9.708;2023-08-24T06:06:04;22.40;99.90
31783;DHT22;18351;47.560;9.708;2023-08-24T06:08:30;22.50;99.90
31783;DHT22;18351;47.560;9.708;2023-08-24T06:10:57;22.60;99.90
31783;DHT22;18351;47.560;9.708;2023-08-24T06:13:22;22.80;99.90
31783;DHT22;18351;47.560;9.708;2023-08-24T06:15:48;22.90;99.90
31783;DHT22;18351;47.560;9.708;2023-08-24T06:18:14;23.00;99.90
31783;DHT22;18351;47.560;9.708;2023-08-24T06:20:39;23.20;99.90
31783;DHT22;18351;47.560;9.708;2023-08-24T06:23:05;23.40;99.90
31783;DHT22;18351;47.560;9.708;2023-08-24T06:25:31;23.60;99.90
31783;DHT22;18351;47.560;9.708;2023-08-24T06:27:57;23.80;99.90
31783;DHT22;18351;47.560;9.708;2023-08-24T06:30:25;24.10;99.90
31783;DHT22;18351;47.560;9.708;2023-08-24T06:32:50;24.30;99.90
31783;DHT22;18351;47.560;9.708;2023-08-24T06:35:16;24.50;99.90
31783;DHT22;18351;47.560;9.708;2023-08-24T06:37:42;24.80;99.90
31783;DHT22;18351;47.560;9.708;2023-08-24T06:40:08;25.20;99.90
31783;DHT22;18351;47.560;9.708;2023-08-24T06:42:34;25.40;99.90
31783;DHT22;18351;47.560;9.708;2023-08-24T06:45:00;25.50;99.90
31783;DHT22;18351;47.560;9.708;2023-08-24T06:47:25;25.30;99.90
31783;DHT22;18351;47.560;9.708;2023-08-24T06:49:51;25.10;99.90
31783;DHT22;18351;47.560;9.708;2023-08-24T06:52:17;24.80;99.90
31783;DHT22;18351;47.560;9.708;2023-08-24T06:54:42;25.00;99.90
31783;DHT22;18351;47.560;9.708;2023-08-24T06:57:08;25.20;99.90
31783;DHT22;18351;47.560;9.708;2023-08-24T06:59:33;25.40;99.90
31783;DHT22;18351;47.560;9.708;2023-08-24T07:01:59;25.50;99.90
31783;DHT22;18351;47.560;9.708;2023-08-24T07:04:26;25.50;99.90
31783;DHT22;18351;47.560;9.708;2023-08-24T07:06:52;25.50;99.90
31783;DHT22;18351;47.560;9.708;2023-08-24T07:09:18;25.60;99.90
31783;DHT22;18351;47.560;9.708;2023-08-24T07:11:44;25.80;99.90
31783;DHT22;18351;47.560;9.708;2023-08-24T07:14:09;26.00;99.90
31783;DHT22;18351;47.560;9.708;2023-08-24T07:16:35;26.10;99.90
31783;DHT22;18351;47.560;9.708;2023-08-24T07:19:01;26.20;99.90
31783;DHT22;18351;47.560;9.708;2023-08-24T07:21:27;26.30;99.90
31783;DHT22;18351;47.560;9.708;2023-08-24T07:23:53;26.40;99.90
31783;DHT22;18351;47.560;9.708;2023-08-24T07:26:19;26.50;99.90
31783;DHT22;18351;47.560;9.708;2023-08-24T07:28:44;26.60;99.90
31783;DHT22;18351;47.560;9.708;2023-08-24T07:31:11;26.80;99.90
31783;DHT22;18351;47.560;9.708;2023-08-24T07:33:40;26.90;97.50
31783;DHT22;18351;47.560;9.708;2023-08-24T07:36:06;27.00;97.10
31783;DHT22;18351;47.560;9.708;2023-08-24T07:38:32;27.20;96.90
31783;DHT22;18351;47.560;9.708;2023-08-24T07:40:58;27.30;96.70
31783;DHT22;18351;47.560;9.708;2023-08-24T07:43:24;27.40;95.60
31783;DHT22;18351;47.560;9.708;2023-08-24T07:45:50;27.40;92.90
31783;DHT22;18351;47.560;9.708;2023-08-24T07:48:15;27.50;93.50
31783;DHT22;18351;47.560;9.708;2023-08-24T07:50:41;27.70;93.60
31783;DHT22;18351;47.560;9.708;2023-08-24T07:53:06;27.80;91.60
31783;DHT22;18351;47.560;9.708;2023-08-24T07:55:32;27.90;91.20
31783;DHT22;18351;47.560;9.708;2023-08-24T07:57:57;28.10;91.20
31783;DHT22;18351;47.560;9.708;2023-08-24T08:00:23;28.20;91.60
31783;DHT22;18351;47.560;9.708;2023-08-24T08:02:50;28.20;90.00
31783;DHT22;18351;47.560;9.708;2023-08-24T08:05:17;28.10;90.60
31783;DHT22;18351;47.560;9.708;2023-08-24T08:07:43;28.10;90.30
31783;DHT22;18351;47.560;9.708;2023-08-24T08:10:09;28.00;90.90
31783;DHT22;18351;47.560;9.708;2023-08-24T08:12:35;28.10;90.50
31783;DHT22;18351;47.560;9.708;2023-08-24T08:15:01;28.10;90.40
31783;DHT22;18351;47.560;9.708;2023-08-24T08:17:27;28.20;90.60
31783;DHT22;18351;47.560;9.708;2023-08-24T08:19:58;28.10;92.70
31783;DHT22;18351;47.560;9.708;2023-08-24T08:22:24;28.00;95.00
31783;DHT22;18351;47.560;9.708;2023-08-24T08:24:51;27.90;97.20
31783;DHT22;18351;47.560;9.708;2023-08-24T08:27:16;27.80;98.50
31783;DHT22;18351;47.560;9.708;2023-08-24T08:29:42;27.70;99.00
31783;DHT22;18351;47.560;9.708;2023-08-24T08:32:08;27.50;99.50
31783;DHT22;18351;47.560;9.708;2023-08-24T08:34:33;27.30;99.70
31783;DHT22;18351;47.560;9.708;2023-08-24T08:36:59;27.20;99.90
31783;DHT22;18351;47.560;9.708;2023-08-24T08:39:25;27.20;99.70
31783;DHT22;18351;47.560;9.708;2023-08-24T08:41:50;27.20;98.90
31783;DHT22;18351;47.560;9.708;2023-08-24T08:44:16;27.20;98.70
31783;DHT22;18351;47.560;9.708;2023-08-24T08:46:43;27.30;98.50
31783;DHT22;18351;47.560;9.708;2023-08-24T08:49:11;27.30;98.00
31783;DHT22;18351;47.560;9.708;2023-08-24T08:51:38;27.40;97.40
31783;DHT22;18351;47.560;9.708;2023-08-24T08:54:05;27.50;97.50
31783;DHT22;18351;47.560;9.708;2023-08-24T08:56:32;27.50;97.30
31783;DHT22;18351;47.560;9.708;2023-08-24T08:58:59;27.70;96.80
31783;DHT22;18351;47.560;9.708;2023-08-24T09:01:26;27.70;96.70
31783;DHT22;18351;47.560;9.708;2023-08-24T09:03:53;27.80;97.00
31783;DHT22;18351;47.560;9.708;2023-08-24T09:06:20;27.80;97.30
31783;DHT22;18351;47.560;9.708;2023-08-24T09:08:47;27.90;98.60
31783;DHT22;18351;47.560;9.708;2023-08-24T09:11:13;28.00;98.80
31783;DHT22;18351;47.560;9.708;2023-08-24T09:13:39;28.20;99.50
31783;DHT22;18351;47.560;9.708;2023-08-24T09:16:06;28.30;98.70
31783;DHT22;18351;47.560;9.708;2023-08-24T09:18:39;28.30;98.20
31783;DHT22;18351;47.560;9.708;2023-08-24T09:21:09;28.40;98.60
31783;DHT22;18351;47.560;9.708;2023-08-24T09:23:35;28.40;97.70
31783;DHT22;18351;47.560;9.708;2023-08-24T09:26:00;28.40;97.30
31783;DHT22;18351;47.560;9.708;2023-08-24T09:28:26;28.30;97.80
31783;DHT22;18351;47.560;9.708;2023-08-24T09:30:53;28.30;98.40
31783;DHT22;18351;47.560;9.708;2023-08-24T09:33:20;28.30;98.50
31783;DHT22;18351;47.560;9.708;2023-08-24T09:35:52;28.40;99.00
31783;DHT22;18351;47.560;9.708;2023-08-24T09:38:19;28.60;98.60
31783;DHT22;18351;47.560;9.708;2023-08-24T09:40:55;28.60;98.50
31783;DHT22;18351;47.560;9.708;2023-08-24T09:43:22;28.90;99.00
31783;DHT22;18351;47.560;9.708;2023-08-24T09:45:49;29.00;98.80
31783;DHT22;18351;47.560;9.708;2023-08-24T09:48:15;29.20;97.90
31783;DHT22;18351;47.560;9.708;2023-08-24T09:50:43;29.20;97.30
31783;DHT22;18351;47.560;9.708;2023-08-24T09:53:15;29.20;96.90
31783;DHT22;18351;47.560;9.708;2023-08-24T09:55:49;29.20;97.00
31783;DHT22;18351;47.560;9.708;2023-08-24T09:58:18;29.20;97.70
31783;DHT22;18351;47.560;9.708;2023-08-24T10:00:45;29.30;98.00
31783;DHT22;18351;47.560;9.708;2023-08-24T10:03:14;29.30;97.80
31783;DHT22;18351;47.560;9.708;2023-08-24T10:05:42;29.30;97.40
31783;DHT22;18351;47.560;9.708;2023-08-24T10:08:09;29.30;97.10
31783;DHT22;18351;47.560;9.708;2023-08-24T10:10:38;29.30;96.80
31783;DHT22;18351;47.560;9.708;2023-08-24T10:13:10;29.30;97.40
31783;DHT22;18351;47.560;9.708;2023-08-24T10:15:40;29.30;96.80
31783;DHT22;18351;47.560;9.708;2023-08-24T10:18:12;29.30;97.00
31783;DHT22;18351;47.560;9.708;2023-08-24T10:20:39;29.20;96.80
31783;DHT22;18351;47.560;9.708;2023-08-24T10:23:05;29.40;96.90
31783;DHT22;18351;47.560;9.708;2023-08-24T10:25:31;29.50;96.30
31783;DHT22;18351;47.560;9.708;2023-08-24T10:27:58;29.60;96.20
31783;DHT22;18351;47.560;9.708;2023-08-24T10:30:26;29.70;95.80
31783;DHT22;18351;47.560;9.708;2023-08-24T10:32:52;29.70;95.40
31783;DHT22;18351;47.560;9.708;2023-08-24T10:35:19;29.80;93.90
31783;DHT22;18351;47.560;9.708;2023-08-24T10:37:46;29.80;93.30
31783;DHT22;18351;47.560;9.708;2023-08-24T10:40:12;29.90;93.80
31783;DHT22;18351;47.560;9.708;2023-08-24T10:42:45;30.10;93.40
31783;DHT22;18351;47.560;9.708;2023-08-24T10:45:13;30.10;93.50
31783;DHT22;18351;47.560;9.708;2023-08-24T10:47:46;30.20;93.40
31783;DHT22;18351;47.560;9.708;2023-08-24T10:50:12;30.40;93.10
31783;DHT22;18351;47.560;9.708;2023-08-24T10:52:39;30.60;92.20
31783;DHT22;18351;47.560;9.708;2023-08-24T10:55:27;30.70;93.00
31783;DHT22;18351;47.560;9.708;2023-08-24T10:57:57;30.80;91.60
31783;DHT22;18351;47.560;9.708;2023-08-24T11:00:26;30.90;91.80
31783;DHT22;18351;47.560;9.708;2023-08-24T11:02:52;31.00;90.90
31783;DHT22;18351;47.560;9.708;2023-08-24T11:05:19;31.10;90.70
31783;DHT22;18351;47.560;9.708;2023-08-24T11:07:59;31.10;90.30
31783;DHT22;18351;47.560;9.708;2023-08-24T11:15:38;31.00;87.70
31783;DHT22;18351;47.560;9.708;2023-08-24T11:20:37;31.30;88.10
31783;DHT22;18351;47.560;9.708;2023-08-24T11:23:03;31.40;88.00
31783;DHT22;18351;47.560;9.708;2023-08-24T11:25:28;31.50;87.80
31783;DHT22;18351;47.560;9.708;2023-08-24T11:27:57;31.70;89.80
31783;DHT22;18351;47.560;9.708;2023-08-24T11:30:22;31.90;90.10
31783;DHT22;18351;47.560;9.708;2023-08-24T11:32:52;31.90;89.60
31783;DHT22;18351;47.560;9.708;2023-08-24T11:35:19;32.10;89.40
31783;DHT22;18351;47.560;9.708;2023-08-24T11:37:44;32.20;89.30
31783;DHT22;18351;47.560;9.708;2023-08-24T11:40:19;32.30;89.60
31783;DHT22;18351;47.560;9.708;2023-08-24T11:42:46;32.40;86.90
31783;DHT22;18351;47.560;9.708;2023-08-24T11:45:12;32.50;86.50
31783;DHT22;18351;47.560;9.708;2023-08-24T11:47:38;32.60;86.40
31783;DHT22;18351;47.560;9.708;2023-08-24T11:50:04;32.80;84.80
31783;DHT22;18351;47.560;9.708;2023-08-24T11:52:30;32.90;85.00
31783;DHT22;18351;47.560;9.708;2023-08-24T11:55:00;33.00;83.10
31783;DHT22;18351;47.560;9.708;2023-08-24T11:57:26;33.00;81.00
31783;DHT22;18351;47.560;9.708;2023-08-24T11:59:54;33.00;81.00
31783;DHT22;18351;47.560;9.708;2023-08-24T12:02:20;33.10;80.10
31783;DHT22;18351;47.560;9.708;2023-08-24T12:04:48;33.20;81.00
31783;DHT22;18351;47.560;9.708;2023-08-24T12:07:14;33.20;80.50
31783;DHT22;18351;47.560;9.708;2023-08-24T12:09:41;33.20;79.00
31783;DHT22;18351;47.560;9.708;2023-08-24T12:12:16;33.30;79.70
31783;DHT22;18351;47.560;9.708;2023-08-24T12:14:45;33.20;74.70
31783;DHT22;18351;47.560;9.708;2023-08-24T12:17:12;33.30;72.50
31783;DHT22;18351;47.560;9.708;2023-08-24T12:19:43;33.20;78.60
31783;DHT22;18351;47.560;9.708;2023-08-24T12:22:17;33.20;80.40
31783;DHT22;18351;47.560;9.708;2023-08-24T12:24:46;33.40;81.40
31783;DHT22;18351;47.560;9.708;2023-08-24T12:27:19;33.50;82.50
31783;DHT22;18351;47.560;9.708;2023-08-24T12:29:48;33.60;81.00
31783;DHT22;18351;47.560;9.708;2023-08-24T12:32:14;33.60;80.40
31783;DHT22;18351;47.560;9.708;2023-08-24T12:34:41;33.60;81.50
31783;DHT22;18351;47.560;9.708;2023-08-24T12:37:08;33.70;80.60
31783;DHT22;18351;47.560;9.708;2023-08-24T12:39:38;33.80;82.40
31783;DHT22;18351;47.560;9.708;2023-08-24T12:42:04;34.00;80.10
31783;DHT22;18351;47.560;9.708;2023-08-24T12:44:29;33.90;79.40
31783;DHT22;18351;47.560;9.708;2023-08-24T12:46:55;34.00;80.40
31783;DHT22;18351;47.560;9.708;2023-08-24T12:49:20;34.00;82.10
31783;DHT22;18351;47.560;9.708;2023-08-24T12:51:46;34.10;81.60
31783;DHT22;18351;47.560;9.708;2023-08-24T12:54:12;34.10;78.20
31783;DHT22;18351;47.560;9.708;2023-08-24T12:56:39;34.00;80.90
31783;DHT22;18351;47.560;9.708;2023-08-24T12:59:06;34.00;79.10
31783;DHT22;18351;47.560;9.708;2023-08-24T13:01:31;33.80;79.30
31783;DHT22;18351;47.560;9.708;2023-08-24T13:03:57;33.90;81.20
31783;DHT22;18351;47.560;9.708;2023-08-24T13:06:23;34.00;80.90
31783;DHT22;18351;47.560;9.708;2023-08-24T13:08:48;34.20;78.00
31783;DHT22;18351;47.560;9.708;2023-08-24T13:11:14;34.30;76.90
31783;DHT22;18351;47.560;9.708;2023-08-24T13:13:40;34.30;75.00
31783;DHT22;18351;47.560;9.708;2023-08-24T13:16:06;34.30;74.60
31783;DHT22;18351;47.560;9.708;2023-08-24T13:18:31;34.10;74.80
31783;DHT22;18351;47.560;9.708;2023-08-24T13:20:57;34.00;76.80
31783;DHT22;18351;47.560;9.708;2023-08-24T13:23:22;34.00;77.80
31783;DHT22;18351;47.560;9.708;2023-08-24T13:25:48;33.90;77.80
31783;DHT22;18351;47.560;9.708;2023-08-24T13:28:13;33.90;79.40
31783;DHT22;18351;47.560;9.708;2023-08-24T13:30:39;33.90;80.10
31783;DHT22;18351;47.560;9.708;2023-08-24T13:33:06;34.00;79.80
31783;DHT22;18351;47.560;9.708;2023-08-24T13:35:32;34.00;80.50
31783;DHT22;18351;47.560;9.708;2023-08-24T13:37:58;34.00;80.70
31783;DHT22;18351;47.560;9.708;2023-08-24T13:40:23;33.90;80.70
31783;DHT22;18351;47.560;9.708;2023-08-24T13:42:49;34.00;82.80
31783;DHT22;18351;47.560;9.708;2023-08-24T13:45:14;33.90;83.00
31783;DHT22;18351;47.560;9.708;2023-08-24T13:47:41;33.90;82.10
31783;DHT22;18351;47.560;9.708;2023-08-24T13:50:07;34.00;83.20
31783;DHT22;18351;47.560;9.708;2023-08-24T13:52:33;34.10;81.80
31783;DHT22;18351;47.560;9.708;2023-08-24T13:54:58;34.20;82.20
31783;DHT22;18351;47.560;9.708;2023-08-24T13:57:24;34.20;80.90
31783;DHT22;18351;47.560;9.708;2023-08-24T13:59:50;34.30;82.00
31783;DHT22;18351;47.560;9.708;2023-08-24T14:02:15;34.30;80.10
31783;DHT22;18351;47.560;9.708;2023-08-24T14:04:41;34.30;79.80
31783;DHT22;18351;47.560;9.708;2023-08-24T14:07:07;34.40;79.40
31783;DHT22;18351;47.560;9.708;2023-08-24T14:09:32;34.40;78.60
31783;DHT22;18351;47.560;9.708;2023-08-24T14:11:58;34.40;79.50
31783;DHT22;18351;47.560;9.708;2023-08-24T14:14:24;34.50;78.20
31783;DHT22;18351;47.560;9.708;2023-08-24T14:16:56;34.60;80.50
31783;DHT22;18351;47.560;9.708;2023-08-24T14:19:22;34.50;79.60
31783;DHT22;18351;47.560;9.708;2023-08-24T14:21:48;34.50;77.00
31783;DHT22;18351;47.560;9.708;2023-08-24T14:24:14;34.50;76.80
31783;DHT22;18351;47.560;9.708;2023-08-24T14:26:39;34.40;76.30
31783;DHT22;18351;47.560;9.708;2023-08-24T14:29:10;34.40;76.80
31783;DHT22;18351;47.560;9.708;2023-08-24T14:31:36;34.40;76.20
31783;DHT22;18351;47.560;9.708;2023-08-24T14:34:02;34.40;75.40
31783;DHT22;18351;47.560;9.708;2023-08-24T14:36:29;34.30;75.90
31783;DHT22;18351;47.560;9.708;2023-08-24T14:38:54;34.30;76.30
31783;DHT22;18351;47.560;9.708;2023-08-24T14:41:20;34.20;75.70
31783;DHT22;18351;47.560;9.708;2023-08-24T14:43:46;34.20;75.40
31783;DHT22;18351;47.560;9.708;2023-08-24T14:46:12;34.20;74.70
31783;DHT22;18351;47.560;9.708;2023-08-24T14:48:38;34.20;75.20
31783;DHT22;18351;47.560;9.708;2023-08-24T14:51:04;34.20;74.10
31783;DHT22;18351;47.560;9.708;2023-08-24T14:53:30;34.20;73.40
31783;DHT22;18351;47.560;9.708;2023-08-24T14:55:56;34.10;73.60
31783;DHT22;18351;47.560;9.708;2023-08-24T14:58:23;33.90;73.10
31783;DHT22;18351;47.560;9.708;2023-08-24T15:00:53;33.80;75.10
31783;DHT22;18351;47.560;9.708;2023-08-24T15:03:19;34.00;73.30
31783;DHT22;18351;47.560;9.708;2023-08-24T15:06:05;33.80;72.10
31783;DHT22;18351;47.560;9.708;2023-08-24T15:08:32;33.80;72.10
31783;DHT22;18351;47.560;9.708;2023-08-24T15:10:59;34.00;70.90
31783;DHT22;18351;47.560;9.708;2023-08-24T15:13:26;34.20;72.80
31783;DHT22;18351;47.560;9.708;2023-08-24T15:15:53;34.40;72.30
31783;DHT22;18351;47.560;9.708;2023-08-24T15:18:19;34.50;73.10
31783;DHT22;18351;47.560;9.708;2023-08-24T15:20:45;34.50;74.10
31783;DHT22;18351;47.560;9.708;2023-08-24T15:23:20;34.40;73.90
31783;DHT22;18351;47.560;9.708;2023-08-24T15:25:46;34.40;73.70
31783;DHT22;18351;47.560;9.708;2023-08-24T15:28:12;34.50;72.20
31783;DHT22;18351;47.560;9.708;2023-08-24T15:30:37;34.50;72.00
31783;DHT22;18351;47.560;9.708;2023-08-24T15:33:03;34.50;72.50
31783;DHT22;18351;47.560;9.708;2023-08-24T15:35:28;34.60;71.20
31783;DHT22;18351;47.560;9.708;2023-08-24T15:37:54;34.60;70.90
31783;DHT22;18351;47.560;9.708;2023-08-24T15:40:20;34.70;70.30
31783;DHT22;18351;47.560;9.708;2023-08-24T15:42:45;34.60;68.90